Time;durP1;ratioP1;P1;durP2;ratioP2;P2;SDS_P1;SDS_P2;PMS_P1;PMS_P2;Temp;Humidity;BMP_temperature;BMP_pressure;BME280_temperature;BME280_humidity;BME280_pressure;Samples;Min_cycle;Max_cycle;Signal;HPM_P1;HPM_P2
2022/05/09 00:00:21;;;;;;;11.48;5.10;;;;;;;6.30;83.06;102516.38;10421972;28;20040;-78
2022/05/09 00:05:26;;;;;;;11.35;4.75;;;;;;;6.22;82.85;102516.44;10419386;28;20112;-78
2022/05/09 00:10:26;;;;;;;12.48;5.45;;;;;;;6.07;82.72;102510.75;10437607;28;20068;-78
2022/05/09 00:15:27;;;;;;;10.63;4.57;;;;;;;6.02;81.86;102507.69;10422307;28;20048;-78
2022/05/09 00:20:28;;;;;;;13.43;4.47;;;;;;;5.96;81.10;102504.50;10454511;28;20033;-78
2022/05/09 00:25:28;;;;;;;10.15;5.45;;;;;;;5.88;81.08;102509.00;10455590;28;20021;-78
2022/05/09 00:30:34;;;;;;;15.90;5.45;;;;;;;5.81;81.20;102504.91;10445570;28;20538;-78
2022/05/09 00:35:36;;;;;;;8.77;4.47;;;;;;;5.78;81.80;102507.22;10436506;28;20025;-78
2022/05/09 00:40:37;;;;;;;12.57;6.20;;;;;;;5.73;81.18;102503.28;10451408;28;20044;-79
2022/05/09 00:45:38;;;;;;;10.13;6.03;;;;;;;5.73;81.75;102500.69;10434618;28;20082;-79
2022/05/09 00:50:38;;;;;;;23.98;7.88;;;;;;;5.72;82.25;102496.25;10453616;28;20110;-79
2022/05/09 00:55:51;;;;;;;11.60;4.53;;;;;;;5.74;83.03;102494.72;10437108;28;20052;-79
2022/05/09 01:00:52;;;;;;;11.65;6.18;;;;;;;5.74;84.12;102489.50;10401128;28;20500;-79
2022/05/09 01:05:52;;;;;;;9.10;5.05;;;;;;;5.68;84.28;102486.34;10436790;28;20112;-79
2022/05/09 01:10:53;;;;;;;15.60;5.95;;;;;;;5.55;84.42;102487.78;10453143;28;20224;-79
2022/05/09 01:15:54;;;;;;;10.45;5.40;;;;;;;5.45;84.76;102485.09;10409234;28;20037;-79
2022/05/09 01:20:55;;;;;;;8.73;5.03;;;;;;;5.36;84.69;102486.81;10382120;28;20025;-79
2022/05/09 01:25:57;;;;;;;11.70;7.03;;;;;;;5.29;84.94;102482.75;10413360;28;20064;-79
2022/05/09 01:30:59;;;;;;;13.57;6.18;;;;;;;5.20;85.38;102481.88;10447031;28;20086;-79
2022/05/09 01:36:14;;;;;;;15.65;6.40;;;;;;;5.16;85.44;102479.75;10434041;28;20032;-80
2022/05/09 01:41:14;;;;;;;9.63;5.10;;;;;;;5.12;85.39;102460.34;10402071;28;20533;-79
2022/05/09 01:46:17;;;;;;;15.52;5.78;;;;;;;5.10;84.92;102470.63;10429745;28;20095;-79
2022/05/09 01:51:17;;;;;;;14.77;5.65;;;;;;;5.03;85.81;102472.44;10405556;28;20036;-80
2022/05/09 01:56:19;;;;;;;13.80;5.55;;;;;;;4.97;85.97;102470.19;10417444;28;20040;-80
2022/05/09 02:01:20;;;;;;;12.83;6.03;;;;;;;4.90;86.27;102462.59;10426623;28;20033;-80
2022/05/09 02:06:20;;;;;;;11.15;6.90;;;;;;;4.90;86.69;102463.50;10427096;28;20525;-80
2022/05/09 02:11:21;;;;;;;13.93;5.15;;;;;;;4.86;86.95;102461.38;10436611;28;20045;-80
2022/05/09 02:16:21;;;;;;;10.98;5.80;;;;;;;4.87;87.10;102462.31;10445133;28;20049;-80
2022/05/09 02:21:22;;;;;;;17.08;5.90;;;;;;;4.90;87.29;102462.59;10391026;28;20079;-79
2022/05/09 02:26:24;;;;;;;20.48;7.68;;;;;;;4.99;88.25;102459.19;10397110;28;20037;-79
2022/05/09 02:31:26;;;;;;;18.13;6.30;;;;;;;4.99;88.39;102463.47;10441324;28;20104;-79
2022/05/09 02:36:26;;;;;;;10.57;5.40;;;;;;;4.88;88.21;102458.94;10456516;28;20032;-79
2022/05/09 02:41:26;;;;;;;14.48;7.20;;;;;;;4.78;88.50;102464.91;10447216;28;20033;-80
2022/05/09 02:46:27;;;;;;;11.93;6.25;;;;;;;4.68;88.54;102457.94;10452097;28;20035;-79
2022/05/09 02:51:28;;;;;;;24.63;9.73;;;;;;;4.62;88.29;102452.16;10445189;28;20040;-79
2022/05/09 02:56:28;;;;;;;13.85;6.85;;;;;;;4.69;89.09;102454.56;10424557;28;20037;-80
2022/05/09 03:01:29;;;;;;;16.27;7.10;;;;;;;4.82;89.62;102455.00;10401358;28;20399;-79
2022/05/09 03:06:29;;;;;;;17.40;6.45;;;;;;;4.83;90.33;102450.69;10439769;28;20068;-80
2022/05/09 03:11:30;;;;;;;15.23;6.85;;;;;;;4.79;90.27;102440.78;10427008;28;20073;-80
2022/05/09 03:16:31;;;;;;;17.92;6.55;;;;;;;4.72;90.49;102452.28;10383725;28;20042;-80
2022/05/09 03:21:32;;;;;;;14.02;6.80;;;;;;;4.60;90.49;102446.78;10416922;28;20076;-79
2022/05/09 03:26:32;;;;;;;16.10;9.07;;;;;;;4.58;90.84;102445.72;10413064;28;20111;-80
2022/05/09 03:31:33;;;;;;;16.40;7.40;;;;;;;4.48;90.92;102454.31;10418548;28;20521;-83
2022/05/09 03:36:33;;;;;;;21.85;10.27;;;;;;;4.43;90.90;102452.94;10406936;28;20061;-79
2022/05/09 03:41:34;;;;;;;10.07;6.45;;;;;;;4.39;90.80;102450.81;10438798;28;20362;-80
2022/05/09 03:46:34;;;;;;;15.07;7.53;;;;;;;4.38;91.08;102452.47;10432496;28;20130;-80
2022/05/09 03:51:35;;;;;;;21.02;8.80;;;;;;;4.44;91.21;102449.59;10434902;28;20120;-78
2022/05/09 03:56:35;;;;;;;25.63;10.38;;;;;;;4.55;91.76;102437.66;10445922;28;20438;-78
2022/05/09 04:01:39;;;;;;;12.85;6.55;;;;;;;4.49;91.73;102447.44;10454768;28;20033;-78
2022/05/09 04:06:40;;;;;;;17.42;7.85;;;;;;;4.43;92.30;102450.34;10452275;28;20083;-78
2022/05/09 04:11:42;;;;;;;15.15;7.53;;;;;;;4.40;91.91;102450.06;10436884;28;20095;-78
2022/05/09 04:16:51;;;;;;;20.02;7.53;;;;;;;4.40;91.61;102445.75;10431410;28;20036;-77
2022/05/09 04:21:52;;;;;;;13.13;7.05;;;;;;;4.48;91.62;102443.00;10442698;28;20041;-78
2022/05/09 04:26:53;;;;;;;22.08;7.72;;;;;;;4.62;91.91;102447.84;10442895;28;20029;-78
2022/05/09 04:31:53;;;;;;;14.77;8.55;;;;;;;4.67;92.25;102446.63;10425219;28;20028;-78
2022/05/09 04:36:54;;;;;;;18.00;9.57;;;;;;;4.75;92.53;102443.84;10445999;28;20044;-80
2022/05/09 04:41:54;;;;;;;17.90;8.25;;;;;;;4.82;92.65;102446.28;10448913;28;20068;-78
2022/05/09 04:46:55;;;;;;;13.38;8.00;;;;;;;4.91;92.41;102441.97;10416487;28;20055;-77
2022/05/09 04:51:55;;;;;;;23.77;10.40;;;;;;;5.06;92.62;102437.34;10427343;28;20069;-77
2022/05/09 04:56:56;;;;;;;23.52;8.45;;;;;;;5.25;92.86;102439.09;10409213;28;20103;-78
2022/05/09 05:01:57;;;;;;;16.52;8.65;;;;;;;5.54;93.15;102434.03;10410192;28;20041;-78
2022/05/09 05:06:57;;;;;;;20.63;10.23;;;;;;;5.81;92.91;102434.75;10449177;28;20492;-77
2022/05/09 05:11:58;;;;;;;10.77;7.60;;;;;;;5.98;92.50;102438.91;10451822;28;20033;-80
2022/05/09 05:17:01;;;;;;;23.35;8.35;;;;;;;6.05;91.56;102436.91;10429476;28;20045;-78
2022/05/09 05:22:02;;;;;;;20.85;8.15;;;;;;;6.13;90.50;102446.31;10433592;28;20045;-77
2022/05/09 05:27:04;;;;;;;17.60;9.67;;;;;;;6.49;90.26;102439.09;10418760;28;20032;-77
2022/05/09 05:32:19;;;;;;;19.52;8.48;;;;;;;7.76;88.37;102432.69;10443615;28;20078;-77
2022/05/09 05:37:20;;;;;;;18.92;6.38;;;;;;;10.04;80.28;102426.25;10438012;28;20116;-77
2022/05/09 05:42:22;;;;;;;18.58;9.35;;;;;;;12.41;65.63;102409.41;10459311;28;20062;-76
2022/05/09 05:47:23;;;;;;;18.10;6.38;;;;;;;13.72;58.48;102421.00;10459332;28;20025;-77
2022/05/09 05:52:23;;;;;;;25.75;7.10;;;;;;;15.15;55.18;102413.22;10416559;28;20771;-76
2022/05/09 05:57:29;;;;;;;14.85;7.63;;;;;;;16.63;49.31;102425.03;10456061;28;20036;-76
2022/05/09 06:02:30;;;;;;;19.58;5.85;;;;;;;17.84;45.05;102419.88;10414459;28;20123;-76
2022/05/09 06:07:30;;;;;;;17.47;7.47;;;;;;;18.01;45.22;102427.66;10416246;28;20025;-79
2022/05/09 06:12:31;;;;;;;13.77;5.80;;;;;;;18.52;45.53;102419.13;10468863;28;20087;-78
2022/05/09 06:17:36;;;;;;;12.47;6.87;;;;;;;19.91;41.88;102407.41;10463930;28;20044;-79
2022/05/09 06:22:38;;;;;;;9.63;5.15;;;;;;;19.98;39.38;102413.84;10494362;28;20426;-80
2022/05/09 06:27:39;;;;;;;12.35;6.00;;;;;;;18.95;42.29;102424.28;10494748;28;20103;-78
2022/05/09 06:32:40;;;;;;;8.40;5.33;;;;;;;19.15;43.17;102419.75;10490833;28;20044;-79
2022/05/09 06:37:40;;;;;;;9.07;5.67;;;;;;;20.43;38.86;102415.28;10479735;28;20048;-79
2022/05/09 06:42:41;;;;;;;15.07;5.60;;;;;;;20.94;37.78;102421.25;10495225;28;20033;-84
2022/05/09 06:47:49;;;;;;;9.07;5.40;;;;;;;21.71;36.10;102402.09;10497221;28;20124;-80
2022/05/09 06:52:50;;;;;;;10.90;4.97;;;;;;;21.72;35.13;102405.69;10493926;28;20552;-81
2022/05/09 06:57:50;;;;;;;13.23;5.10;;;;;;;22.11;37.38;102396.88;10482653;28;20106;-81
2022/05/09 07:02:51;;;;;;;9.57;5.53;;;;;;;22.08;37.02;102391.47;10498488;28;20056;-81
2022/05/09 07:07:52;;;;;;;12.43;6.83;;;;;;;22.75;34.64;102398.31;10481429;28;20059;-81
2022/05/09 07:12:54;;;;;;;11.97;5.43;;;;;;;22.87;34.84;102392.38;10470203;28;20556;-81
2022/05/09 07:17:55;;;;;;;11.18;5.35;;;;;;;24.12;32.02;102382.16;10458425;28;20090;-81
2022/05/09 07:22:58;;;;;;;8.70;5.05;;;;;;;24.31;33.62;102386.03;10405347;28;20059;-81
2022/05/09 07:27:58;;;;;;;10.23;5.20;;;;;;;25.21;30.40;102380.03;10421424;28;20361;-81
2022/05/09 07:32:59;;;;;;;10.97;5.67;;;;;;;24.76;31.89;102384.88;10417145;28;20069;-81
2022/05/09 07:37:59;;;;;;;12.33;5.50;;;;;;;25.00;32.27;102380.72;10418882;28;20072;-80
2022/05/09 07:43:00;;;;;;;13.97;5.90;;;;;;;25.97;29.93;102373.59;10438091;28;20488;-80
2022/05/09 07:48:00;;;;;;;10.03;5.10;;;;;;;26.29;30.24;102373.81;10438494;28;20090;-80
2022/05/09 07:53:08;;;;;;;9.50;5.83;;;;;;;25.48;32.88;102383.91;10433243;28;20124;-80
2022/05/09 07:58:09;;;;;;;9.80;4.55;;;;;;;26.19;31.93;102374.63;10415866;28;20384;-80
2022/05/09 08:03:22;;;;;;;15.80;5.55;;;;;;;27.07;29.39;102371.47;10437298;28;20033;-80
2022/05/09 08:08:24;;;;;;;11.40;5.28;;;;;;;27.86;28.67;102371.56;10407764;28;20024;-78
2022/05/09 08:13:29;;;;;;;8.68;4.32;;;;;;;27.07;29.31;102375.06;10455401;28;20041;-80
2022/05/09 08:18:31;;;;;;;9.85;4.05;;;;;;;27.18;27.79;102363.44;10421400;28;20033;-79
2022/05/09 08:23:32;;;;;;;11.90;5.70;;;;;;;27.37;29.66;102362.59;10417471;28;20033;-80
2022/05/09 08:28:33;;;;;;;14.57;4.35;;;;;;;27.59;29.32;102361.72;10409373;28;20468;-80
2022/05/09 08:33:33;;;;;;;10.83;4.20;;;;;;;27.88;28.86;102361.72;10422297;28;20045;-79
2022/05/09 08:38:34;;;;;;;8.17;5.40;;;;;;;26.97;31.26;102366.06;10416533;28;20072;-80
2022/05/09 08:44:00;;;;;;;10.80;4.63;;;;;;;27.16;30.74;102374.19;10419413;28;20133;-80
2022/05/09 08:49:38;;;;;;;8.43;4.88;;;;;;;27.91;30.28;102367.09;10397584;28;20461;-78
2022/05/09 08:54:39;;;;;;;8.95;4.47;;;;;;;29.59;26.09;102363.69;10445368;28;20044;-77
2022/05/09 08:59:47;;;;;;;12.45;4.60;;;;;;;29.61;25.64;102367.25;10395710;28;20121;-78
2022/05/09 09:04:54;;;;;;;9.55;5.40;;;;;;;29.64;26.85;102363.63;10401379;28;20448;-78
2022/05/09 09:10:13;;;;;;;9.32;4.03;;;;;;;29.53;27.07;102358.34;10418277;28;20041;-82
2022/05/09 09:15:32;;;;;;;10.68;4.10;;;;;;;30.32;26.01;102357.56;10454126;28;20041;-81
2022/05/09 09:20:40;;;;;;;10.65;5.00;;;;;;;30.58;25.91;102348.25;10426651;28;20076;-78
2022/05/09 09:25:58;;;;;;;10.57;3.75;;;;;;;31.16;25.15;102345.63;10417605;28;20033;-78
2022/05/09 09:30:58;;;;;;;8.75;4.25;;;;;;;31.23;25.47;102344.66;10415967;28;20037;-80
2022/05/09 09:36:05;;;;;;;;;;;;;;;31.14;24.47;102340.28;10436253;28;20447;-80
2022/05/09 09:41:30;;;;;;;11.30;5.93;;;;;;;30.71;25.93;102336.38;10436002;28;19917;-79
2022/05/09 09:46:30;;;;;;;10.88;4.07;;;;;;;29.91;29.18;102334.59;10423737;28;20500;-79
2022/05/09 09:51:31;;;;;;;7.37;4.63;;;;;;;29.00;27.37;102331.72;10436832;28;20039;-81
2022/05/09 09:56:32;;;;;;;13.93;4.53;;;;;;;29.01;27.20;102330.84;10435511;28;20057;-79
2022/05/09 10:01:37;;;;;;;8.70;3.97;;;;;;;30.41;26.04;102332.25;10435744;28;20112;-80
2022/05/09 10:06:59;;;;;;;9.15;3.88;;;;;;;30.79;25.87;102325.47;10436856;28;20372;-79
2022/05/09 10:12:20;;;;;;;10.88;5.28;;;;;;;31.01;25.46;102307.13;10436945;28;20489;-80
2022/05/09 10:17:20;;;;;;;7.33;3.20;;;;;;;31.70;24.67;102306.91;10443009;28;20435;-80
2022/05/09 10:28:14;;;;;;;8.18;4.53;;;;;;;30.97;24.70;102291.00;10433155;28;20029;-79
2022/05/09 10:33:35;;;;;;;8.25;4.18;;;;;;;30.28;26.96;102299.09;10443775;28;20180;-80
2022/05/09 10:38:41;;;;;;;8.23;4.45;;;;;;;29.86;28.91;102284.25;10459803;28;20064;-80
2022/05/09 10:43:59;;;;;;;9.15;5.10;;;;;;;31.02;27.48;102281.00;10442671;28;20040;-79
2022/05/09 10:49:02;;;;;;;8.00;3.80;;;;;;;30.89;27.85;102275.78;10442452;28;20024;-80
2022/05/09 10:54:06;;;;;;;10.80;5.32;;;;;;;30.37;29.10;102271.97;10458982;28;20376;-79
2022/05/09 10:59:28;;;;;;;8.00;4.65;;;;;;;30.55;29.31;102264.53;10458741;28;20037;-79
2022/05/09 11:04:30;;;;;;;9.23;5.78;;;;;;;30.75;28.26;102262.47;10427534;28;20503;-79
2022/05/09 11:09:34;;;;;;;10.93;5.63;;;;;;;30.66;28.57;102250.94;10424553;28;20037;-79
2022/05/09 11:14:47;;;;;;;10.40;4.65;;;;;;;31.16;26.14;102245.59;10440474;28;20037;-79
2022/05/09 11:20:07;;;;;;;10.43;5.25;;;;;;;30.97;26.12;102245.91;10439885;28;20041;-79
2022/05/09 11:25:47;;;;;;;12.57;6.68;;;;;;;30.83;27.36;102240.75;10457816;28;20124;-79
2022/05/09 11:31:12;;;;;;;10.37;6.20;;;;;;;31.56;26.48;102238.63;10443657;28;20110;-79
2022/05/09 11:36:33;;;;;;;10.90;6.35;;;;;;;31.88;26.51;102239.84;10425557;28;20412;-79
2022/05/09 11:41:37;;;;;;;8.60;5.75;;;;;;;31.39;29.11;102226.31;10423020;28;20534;-79
2022/05/09 11:46:46;;;;;;;12.63;7.10;;;;;;;31.17;26.30;102217.69;10422884;28;20472;-79
2022/05/09 11:51:55;;;;;;;12.45;6.75;;;;;;;31.33;27.20;102213.78;10439633;28;20155;-79
2022/05/09 11:57:09;;;;;;;10.15;7.18;;;;;;;32.22;25.42;102209.34;10438766;28;20465;-79
2022/05/09 12:02:11;;;;;;;9.20;5.95;;;;;;;31.68;26.88;102192.41;10423478;28;20033;-80
2022/05/09 12:07:35;;;;;;;14.45;6.93;;;;;;;32.72;25.87;102190.09;10437935;28;20539;-80
2022/05/09 12:12:41;;;;;;;10.30;5.47;;;;;;;30.07;28.70;102197.72;10452515;28;20064;-81
2022/05/09 12:17:48;;;;;;;7.88;5.97;;;;;;;26.34;35.25;102207.47;10454062;28;20051;-81
2022/05/09 12:22:49;;;;;;;10.35;6.30;;;;;;;26.12;33.24;102195.72;10408721;28;20040;-81
2022/05/09 12:28:18;;;;;;;10.85;6.25;;;;;;;27.52;33.86;102188.78;10397906;28;20531;-81
2022/05/09 12:33:46;;;;;;;7.15;4.32;;;;;;;30.65;28.12;102170.81;10428203;28;20392;-82
2022/05/09 12:38:49;;;;;;;7.45;4.72;;;;;;;31.81;26.93;102173.22;10446313;28;20095;-81
2022/05/09 12:43:55;;;;;;;8.20;5.35;;;;;;;32.36;24.37;102174.72;10421295;28;20122;-81
2022/05/09 12:48:57;;;;;;;10.18;5.22;;;;;;;31.76;24.32;102163.41;10436410;28;20554;-80
2022/05/09 12:53:58;;;;;;;8.25;5.63;;;;;;;31.39;23.19;102165.91;10435111;28;20041;-80
2022/05/09 12:59:06;;;;;;;7.80;5.05;;;;;;;32.01;24.18;102160.16;10419290;28;20041;-81
2022/05/09 13:04:20;;;;;;;7.60;4.60;;;;;;;32.20;24.14;102155.19;10395778;28;20022;-80
2022/05/09 13:09:27;;;;;;;9.93;4.95;;;;;;;31.55;23.10;102147.56;10380760;28;20351;-78
2022/05/09 13:14:39;;;;;;;7.43;4.47;;;;;;;31.13;24.21;102145.63;10413088;28;20051;-78
2022/05/09 13:19:50;;;;;;;6.55;4.35;;;;;;;31.59;24.55;102125.81;10396200;28;20475;-78
2022/05/09 13:24:52;;;;;;;11.45;5.05;;;;;;;31.22;24.65;102131.09;10384894;28;20477;-77
2022/05/09 13:29:53;;;;;;;8.20;4.45;;;;;;;31.63;24.32;102123.97;10415135;28;20025;-78
2022/05/09 13:34:54;;;;;;;7.70;3.80;;;;;;;32.52;23.53;102114.75;10381337;28;20037;-78
2022/05/09 13:39:56;;;;;;;8.43;4.57;;;;;;;32.21;23.47;102116.34;10404938;28;20034;-79
2022/05/09 13:44:58;;;;;;;7.28;5.20;;;;;;;31.44;24.34;102120.72;10420620;28;20473;-78
2022/05/09 13:49:59;;;;;;;16.90;13.60;;;;;;;31.79;24.15;102100.19;10428053;28;20128;-78
2022/05/09 13:54:59;;;;;;;8.15;6.45;;;;;;;30.77;26.09;102095.81;10443386;28;20560;-78
2022/05/09 14:00:07;;;;;;;8.93;5.97;;;;;;;30.48;26.46;102089.09;10433345;28;20052;-78
2022/05/09 14:05:15;;;;;;;11.65;5.30;;;;;;;30.97;26.39;102097.25;10421458;28;20029;-78
2022/05/09 14:10:38;;;;;;;9.57;4.28;;;;;;;30.98;24.77;102096.34;10394100;28;20401;-79
2022/05/09 14:15:39;;;;;;;15.30;6.60;;;;;;;31.22;25.92;102088.72;10460178;28;20064;-79
2022/05/09 14:20:42;;;;;;;12.55;6.45;;;;;;;31.66;23.88;102083.31;10425383;28;20041;-79
2022/05/09 14:31:41;;;;;;;7.63;5.05;;;;;;;30.14;28.18;102068.03;10442897;28;20119;-78
2022/05/09 14:36:42;;;;;;;11.60;5.75;;;;;;;28.48;29.02;102075.31;10442393;28;20040;-79
2022/05/09 14:41:44;;;;;;;;;;;;;;;27.00;31.03;102067.03;10407420;28;20040;-78
2022/05/09 14:47:01;;;;;;;9.15;6.07;;;;;;;27.65;30.79;102056.09;10442477;28;20279;-78
2022/05/09 14:52:06;;;;;;;9.05;5.18;;;;;;;28.18;31.00;102042.34;10442768;28;20476;-80
2022/05/09 14:57:25;;;;;;;10.73;5.18;;;;;;;28.52;31.08;102038.47;10422118;28;20064;-80
2022/05/09 15:02:29;;;;;;;6.20;4.97;;;;;;;28.42;29.65;102032.28;10429674;28;20041;-80
2022/05/09 15:07:29;;;;;;;9.70;5.47;;;;;;;27.77;30.08;102024.66;10457911;28;20086;-80
2022/05/09 15:12:32;;;;;;;11.18;6.15;;;;;;;27.90;30.66;102025.44;10417133;28;20045;-79
2022/05/09 15:17:34;;;;;;;8.18;5.43;;;;;;;27.91;28.21;102017.38;10444187;28;20048;-80
2022/05/09 15:22:35;;;;;;;11.10;4.90;;;;;;;26.51;31.03;102017.84;10424534;28;20108;-80
2022/05/09 15:27:35;;;;;;;13.57;5.35;;;;;;;25.67;32.66;102010.56;10440885;28;20037;-79
2022/05/09 15:32:38;;;;;;;6.93;5.53;;;;;;;25.02;34.12;101997.75;10403948;28;20063;-79
2022/05/09 15:37:43;;;;;;;10.68;5.20;;;;;;;24.68;33.31;101990.41;10440254;28;20124;-80
2022/05/09 15:42:44;;;;;;;8.93;4.65;;;;;;;24.34;35.30;101985.69;10449711;28;20029;-80
2022/05/09 15:47:45;;;;;;;6.83;4.83;;;;;;;24.28;35.27;101972.25;10420246;28;20029;-81
2022/05/09 15:52:46;;;;;;;7.80;3.90;;;;;;;24.05;35.75;101978.31;10437619;28;20127;-80
2022/05/09 15:57:48;;;;;;;10.10;5.17;;;;;;;24.05;34.90;101962.25;10433618;28;20029;-80
2022/05/09 16:02:49;;;;;;;10.27;5.55;;;;;;;23.99;34.54;101969.31;10404545;28;20465;-79
2022/05/09 16:13:08;;;;;;;6.88;5.00;;;;;;;23.70;36.01;101957.44;10464405;28;20040;-80
2022/05/09 16:18:26;;;;;;;6.67;4.87;;;;;;;23.55;36.92;101952.84;10477521;28;20044;-80
2022/05/09 16:23:27;;;;;;;6.68;4.07;;;;;;;23.37;39.56;101958.84;10459172;28;20064;-82
2022/05/09 16:28:27;;;;;;;7.10;5.43;;;;;;;23.43;35.15;101953.59;10483383;28;20079;-81
2022/05/09 16:33:29;;;;;;;9.63;3.37;;;;;;;23.54;34.74;101952.81;10492723;28;20629;-79
2022/05/09 16:38:32;;;;;;;7.40;4.53;;;;;;;23.56;35.39;101948.38;10465167;28;20047;-83
2022/05/09 16:43:35;;;;;;;6.10;4.03;;;;;;;23.55;35.48;101941.25;10478913;28;20123;-80
2022/05/09 16:48:35;;;;;;;6.45;4.00;;;;;;;23.39;34.18;101945.53;10484093;28;20051;-80
2022/05/09 16:53:36;;;;;;;6.73;3.70;;;;;;;23.11;36.91;101945.16;10443981;28;20039;-81
2022/05/09 16:58:37;;;;;;;6.17;4.57;;;;;;;22.92;35.72;101938.69;10493566;28;20121;-78
2022/05/09 17:03:38;;;;;;;5.53;4.07;;;;;;;22.64;36.26;101947.22;10474775;28;20044;-78
2022/05/09 17:08:38;;;;;;;7.40;3.20;;;;;;;22.30;38.87;101942.22;10486291;28;20451;-78
2022/05/09 17:13:39;;;;;;;7.23;4.93;;;;;;;21.93;40.11;101944.25;10468523;28;20068;-77
2022/05/09 17:18:41;;;;;;;8.53;4.13;;;;;;;21.63;44.07;101948.16;10487719;28;20094;-77
2022/05/09 17:23:41;;;;;;;16.65;7.47;;;;;;;21.32;41.92;101935.97;10499572;28;20060;-77
2022/05/09 17:28:43;;;;;;;11.40;4.40;;;;;;;21.22;41.29;101942.88;10503731;28;20072;-77
2022/05/09 17:33:43;;;;;;;8.20;4.07;;;;;;;21.10;41.08;101939.09;10485283;28;20032;-78
2022/05/09 17:38:44;;;;;;;6.35;4.00;;;;;;;20.92;44.85;101949.34;10486437;28;20087;-80
2022/05/09 17:43:45;;;;;;;6.70;4.30;;;;;;;20.67;46.11;101943.44;10495345;28;20016;-78
2022/05/09 17:48:45;;;;;;;11.02;4.85;;;;;;;20.49;46.09;101944.78;10450113;28;20025;-79
2022/05/09 17:53:46;;;;;;;10.23;6.30;;;;;;;20.34;48.69;101948.00;10463450;28;20079;-78
2022/05/09 17:58:47;;;;;;;5.78;5.22;;;;;;;20.07;48.54;101950.84;10497843;28;20961;-77
2022/05/09 18:03:48;;;;;;;8.15;3.83;;;;;;;19.94;48.04;101953.19;10484411;28;20535;-77
2022/05/09 18:08:48;;;;;;;11.05;5.32;;;;;;;19.75;49.37;101954.44;10474929;28;20020;-78
2022/05/09 18:13:49;;;;;;;7.97;4.25;;;;;;;19.45;49.85;101949.16;10498879;28;20091;-77
2022/05/09 18:18:53;;;;;;;6.72;3.95;;;;;;;19.11;51.45;101954.41;10475081;28;20036;-77
2022/05/09 18:24:04;;;;;;;8.18;4.53;;;;;;;18.75;53.41;101953.28;10452406;28;20125;-77
2022/05/09 18:29:05;;;;;;;7.40;4.25;;;;;;;18.39;53.93;101956.56;10480917;28;20040;-77
2022/05/09 18:34:06;;;;;;;5.15;3.67;;;;;;;18.03;54.66;101950.09;10486714;28;20381;-77
2022/05/09 18:39:10;;;;;;;7.17;4.57;;;;;;;17.68;56.22;101941.81;10478630;28;20040;-79
2022/05/09 18:44:10;;;;;;;6.10;3.78;;;;;;;17.36;57.21;101937.97;10465138;28;20112;-79
2022/05/09 18:54:30;;;;;;;11.65;4.65;;;;;;;16.77;60.39;101936.66;10494474;28;20132;-77
2022/05/09 18:59:30;;;;;;;8.02;4.43;;;;;;;16.56;60.02;101937.59;10474651;28;20228;-79
2022/05/09 19:04:31;;;;;;;9.95;4.40;;;;;;;16.34;60.35;101932.28;10491847;28;20167;-79
2022/05/09 19:09:32;;;;;;;7.78;5.80;;;;;;;16.11;61.18;101929.59;10495179;28;20036;-78
2022/05/09 19:14:37;;;;;;;9.07;4.27;;;;;;;15.86;61.65;101931.16;10421442;28;20052;-78
2022/05/09 19:19:38;;;;;;;9.80;4.70;;;;;;;15.65;62.05;101932.03;10421611;28;20052;-80
2022/05/09 19:24:38;;;;;;;7.57;4.80;;;;;;;15.53;62.17;101934.13;10407485;28;20128;-77
2022/05/09 19:29:40;;;;;;;11.00;5.40;;;;;;;15.30;64.04;101933.09;10390265;28;20036;-77
2022/05/09 19:34:41;;;;;;;10.57;4.40;;;;;;;15.13;65.47;101946.41;10434115;28;20029;-77
2022/05/09 19:39:41;;;;;;;8.57;5.45;;;;;;;15.07;66.80;101951.38;10428617;28;20472;-77
2022/05/09 19:44:47;;;;;;;7.57;5.18;;;;;;;14.92;67.47;101949.84;10397042;28;20041;-78
2022/05/09 19:49:48;;;;;;;7.03;5.20;;;;;;;14.87;67.29;101961.00;10443563;28;20035;-77
2022/05/09 19:54:49;;;;;;;10.52;6.53;;;;;;;14.65;67.41;101952.03;10455269;28;20047;-78
2022/05/09 19:59:49;;;;;;;8.82;5.40;;;;;;;14.48;68.09;101962.66;10401845;28;20055;-78
2022/05/09 20:04:52;;;;;;;7.55;5.20;;;;;;;14.37;68.15;101959.47;10454334;28;20520;-77
2022/05/09 20:09:54;;;;;;;;;;;;;;;14.26;69.61;101965.06;10435288;28;20040;-77
2022/05/09 20:14:54;;;;;;;17.63;5.40;;;;;;;14.09;70.51;101966.00;10436043;28;19968;-77
2022/05/09 20:19:55;;;;;;;8.15;5.78;;;;;;;14.08;70.80;101963.31;10432788;28;20502;-78
2022/05/09 20:24:56;;;;;;;10.15;5.40;;;;;;;13.94;70.73;101974.03;10455224;28;20419;-77
2022/05/09 20:29:59;;;;;;;6.45;5.35;;;;;;;13.79;70.92;101979.38;10434712;28;20075;-77
2022/05/09 20:34:59;;;;;;;7.95;4.78;;;;;;;13.57;70.98;101965.94;10420107;28;20164;-77
2022/05/09 20:40:08;;;;;;;7.75;5.82;;;;;;;13.39;72.76;101964.09;10448253;28;20611;-77
2022/05/09 20:45:11;;;;;;;9.32;6.68;;;;;;;13.31;74.06;101963.69;10434759;28;20033;-78
2022/05/09 20:50:15;;;;;;;8.80;6.30;;;;;;;13.13;74.25;101963.59;10414167;28;20128;-77
2022/05/09 20:55:19;;;;;;;8.55;6.60;;;;;;;13.01;74.77;101965.53;10434680;28;20033;-78
2022/05/09 21:00:23;;;;;;;9.77;6.95;;;;;;;12.95;76.02;101970.44;10434216;28;20033;-78
2022/05/09 21:05:24;;;;;;;12.00;7.57;;;;;;;12.87;75.49;101967.41;10420253;28;20047;-77
2022/05/09 21:10:25;;;;;;;9.43;6.70;;;;;;;12.83;76.01;101963.69;10394206;28;20125;-78
2022/05/09 21:15:25;;;;;;;12.30;8.13;;;;;;;12.75;75.10;101959.72;10430181;28;20091;-78
2022/05/09 21:20:25;;;;;;;11.30;6.60;;;;;;;12.76;75.51;101956.28;10452440;28;20151;-77
2022/05/09 21:25:35;;;;;;;12.65;6.60;;;;;;;12.81;75.89;101960.06;10432257;28;20495;-78
2022/05/09 21:30:36;;;;;;;10.30;6.93;;;;;;;12.77;76.57;101953.75;10418773;28;20028;-77
2022/05/09 21:35:49;;;;;;;12.98;8.15;;;;;;;12.73;76.22;101969.25;10441860;28;20053;-78
2022/05/09 21:41:05;;;;;;;14.70;9.27;;;;;;;12.51;76.86;101968.03;10427575;28;20064;-77
2022/05/09 21:46:06;;;;;;;14.10;7.97;;;;;;;12.47;78.58;101958.16;10426366;28;20034;-78
2022/05/09 21:51:07;;;;;;;11.45;7.57;;;;;;;12.40;78.94;101943.78;10448639;28;20097;-77
2022/05/09 21:56:08;;;;;;;10.52;7.20;;;;;;;12.40;79.24;101946.41;10444601;28;20033;-78
2022/05/09 22:01:14;;;;;;;14.03;8.00;;;;;;;12.36;79.71;101935.63;10407331;28;20135;-77
2022/05/09 22:06:26;;;;;;;11.70;7.35;;;;;;;12.27;78.82;101933.41;10432913;28;20040;-77
2022/05/09 22:11:26;;;;;;;15.17;9.03;;;;;;;12.26;78.58;101929.84;10461512;28;20048;-77
2022/05/09 22:16:27;;;;;;;13.45;8.18;;;;;;;12.11;78.51;101916.78;10433789;28;20040;-77
2022/05/09 22:21:27;;;;;;;14.82;8.57;;;;;;;11.89;79.77;101912.84;10452560;28;20139;-77
2022/05/09 22:26:29;;;;;;;11.52;9.15;;;;;;;11.82;80.89;101915.94;10440477;28;20057;-77
2022/05/09 22:31:29;;;;;;;9.90;7.60;;;;;;;11.85;81.65;101912.56;10440231;28;20021;-77
2022/05/09 22:36:30;;;;;;;10.80;8.00;;;;;;;11.79;81.24;101914.81;10408174;28;20084;-77
2022/05/09 22:41:31;;;;;;;11.00;8.80;;;;;;;11.70;81.71;101918.72;10424135;28;20044;-78
2022/05/09 22:46:31;;;;;;;10.85;9.75;;;;;;;11.61;82.31;101918.16;10458209;28;20069;-78
2022/05/09 22:51:32;;;;;;;10.73;8.80;;;;;;;11.52;82.73;101917.59;10422328;28;20090;-77
2022/05/09 22:56:32;;;;;;;12.40;9.10;;;;;;;11.53;84.33;101917.72;10456641;28;20064;-77
2022/05/09 23:01:34;;;;;;;14.00;8.75;;;;;;;11.56;84.17;101922.22;10455562;28;20041;-77
2022/05/09 23:06:35;;;;;;;11.48;7.65;;;;;;;11.58;83.86;101913.66;10437542;28;20029;-78
2022/05/09 23:11:35;;;;;;;13.15;8.73;;;;;;;11.66;83.93;101903.59;10434986;28;20130;-77
2022/05/09 23:16:36;;;;;;;12.82;9.55;;;;;;;11.63;83.80;101898.19;10440494;28;20033;-78
2022/05/09 23:21:36;;;;;;;15.98;8.82;;;;;;;11.63;83.72;101890.31;10406268;28;20440;-77
2022/05/09 23:26:37;;;;;;;13.90;10.15;;;;;;;11.56;83.78;101896.91;10437165;28;20067;-78
2022/05/09 23:31:37;;;;;;;13.07;10.35;;;;;;;11.46;84.31;101895.44;10436961;28;20581;-77